sensor_id;sensor_type;location;lat;lon;timestamp;P1;durP1;ratioP1;P2;durP2;ratioP2
8993;SDS011;4532;50.886;4.700;2023-08-20T00:01:13;8.70;;;2.67;;
8993;SDS011;4532;50.886;4.700;2023-08-20T00:03:45;7.47;;;2.60;;
8993;SDS011;4532;50.886;4.700;2023-08-20T00:06:14;8.05;;;2.15;;
8993;SDS011;4532;50.886;4.700;2023-08-20T00:08:41;5.60;;;2.20;;
8993;SDS011;4532;50.886;4.700;2023-08-20T00:11:08;6.45;;;1.98;;
8993;SDS011;4532;50.886;4.700;2023-08-20T00:13:53;6.85;;;2.22;;
8993;SDS011;4532;50.886;4.700;2023-08-20T00:16:22;6.43;;;2.15;;
8993;SDS011;4532;50.886;4.700;2023-08-20T00:18:50;8.82;;;2.42;;
8993;SDS011;4532;50.886;4.700;2023-08-20T00:21:17;8.35;;;2.45;;
8993;SDS011;4532;50.886;4.700;2023-08-20T00:23:48;6.38;;;2.85;;
8993;SDS011;4532;50.886;4.700;2023-08-20T00:26:18;8.15;;;2.20;;
8993;SDS011;4532;50.886;4.700;2023-08-20T00:28:46;6.50;;;2.47;;
8993;SDS011;4532;50.886;4.700;2023-08-20T00:31:23;9.77;;;2.65;;
8993;SDS011;4532;50.886;4.700;2023-08-20T00:33:55;7.75;;;2.33;;
8993;SDS011;4532;50.886;4.700;2023-08-20T00:36:33;6.50;;;2.55;;
8993;SDS011;4532;50.886;4.700;2023-08-20T00:39:00;6.47;;;2.10;;
8993;SDS011;4532;50.886;4.700;2023-08-20T00:41:35;6.55;;;2.28;;
8993;SDS011;4532;50.886;4.700;2023-08-20T00:44:02;8.45;;;2.30;;
8993;SDS011;4532;50.886;4.700;2023-08-20T00:46:32;5.90;;;2.13;;
8993;SDS011;4532;50.886;4.700;2023-08-20T00:48:59;6.05;;;2.15;;
8993;SDS011;4532;50.886;4.700;2023-08-20T00:51:32;6.93;;;2.28;;
8993;SDS011;4532;50.886;4.700;2023-08-20T00:54:02;6.25;;;2.33;;
8993;SDS011;4532;50.886;4.700;2023-08-20T00:56:30;7.88;;;2.28;;
8993;SDS011;4532;50.886;4.700;2023-08-20T00:59:04;8.80;;;2.35;;
8993;SDS011;4532;50.886;4.700;2023-08-20T01:01:34;9.38;;;2.40;;
8993;SDS011;4532;50.886;4.700;2023-08-20T01:04:04;7.28;;;2.40;;
8993;SDS011;4532;50.886;4.700;2023-08-20T01:09:05;6.47;;;2.22;;
8993;SDS011;4532;50.886;4.700;2023-08-20T01:11:40;8.88;;;2.50;;
8993;SDS011;4532;50.886;4.700;2023-08-20T01:14:21;8.57;;;2.38;;
8993;SDS011;4532;50.886;4.700;2023-08-20T01:16:48;9.00;;;2.63;;
8993;SDS011;4532;50.886;4.700;2023-08-20T01:19:23;6.85;;;2.40;;
8993;SDS011;4532;50.886;4.700;2023-08-20T01:29:48;8.02;;;2.70;;
8993;SDS011;4532;50.886;4.700;2023-08-20T01:32:16;7.93;;;2.05;;
8993;SDS011;4532;50.886;4.700;2023-08-20T01:34:47;4.45;;;1.85;;
8993;SDS011;4532;50.886;4.700;2023-08-20T01:37:17;6.03;;;2.38;;
8993;SDS011;4532;50.886;4.700;2023-08-20T01:39:49;6.40;;;2.47;;
8993;SDS011;4532;50.886;4.700;2023-08-20T01:42:16;7.95;;;2.35;;
8993;SDS011;4532;50.886;4.700;2023-08-20T01:44:47;5.32;;;2.22;;
8993;SDS011;4532;50.886;4.700;2023-08-20T01:47:14;5.85;;;2.38;;
8993;SDS011;4532;50.886;4.700;2023-08-20T01:49:41;5.05;;;2.55;;
8993;SDS011;4532;50.886;4.700;2023-08-20T01:52:12;6.53;;;2.20;;
8993;SDS011;4532;50.886;4.700;2023-08-20T01:54:41;6.75;;;2.40;;
8993;SDS011;4532;50.886;4.700;2023-08-20T01:57:14;4.90;;;2.25;;
8993;SDS011;4532;50.886;4.700;2023-08-20T01:59:42;8.75;;;2.47;;
8993;SDS011;4532;50.886;4.700;2023-08-20T02:02:12;5.28;;;2.15;;
8993;SDS011;4532;50.886;4.700;2023-08-20T02:04:39;7.70;;;2.28;;
8993;SDS011;4532;50.886;4.700;2023-08-20T02:07:06;6.40;;;2.38;;
8993;SDS011;4532;50.886;4.700;2023-08-20T02:09:38;5.97;;;1.88;;
8993;SDS011;4532;50.886;4.700;2023-08-20T02:12:05;4.90;;;2.30;;
8993;SDS011;4532;50.886;4.700;2023-08-20T02:14:35;4.10;;;2.05;;
8993;SDS011;4532;50.886;4.700;2023-08-20T02:17:03;5.35;;;1.98;;
8993;SDS011;4532;50.886;4.700;2023-08-20T02:19:31;7.88;;;2.30;;
8993;SDS011;4532;50.886;4.700;2023-08-20T02:22:02;7.82;;;2.42;;
8993;SDS011;4532;50.886;4.700;2023-08-20T02:24:32;6.65;;;2.58;;
8993;SDS011;4532;50.886;4.700;2023-08-20T02:27:01;8.77;;;2.40;;
8993;SDS011;4532;50.886;4.700;2023-08-20T02:29:29;7.22;;;2.15;;
8993;SDS011;4532;50.886;4.700;2023-08-20T02:31:59;8.15;;;2.70;;
8993;SDS011;4532;50.886;4.700;2023-08-20T02:34:26;7.80;;;2.50;;
8993;SDS011;4532;50.886;4.700;2023-08-20T02:36:54;6.22;;;2.60;;
8993;SDS011;4532;50.886;4.700;2023-08-20T02:39:21;7.22;;;2.38;;
8993;SDS011;4532;50.886;4.700;2023-08-20T02:41:48;9.82;;;2.58;;
8993;SDS011;4532;50.886;4.700;2023-08-20T02:44:17;10.00;;;2.50;;
8993;SDS011;4532;50.886;4.700;2023-08-20T02:46:45;8.98;;;2.85;;
8993;SDS011;4532;50.886;4.700;2023-08-20T02:49:15;7.72;;;2.60;;
8993;SDS011;4532;50.886;4.700;2023-08-20T02:51:43;8.88;;;2.45;;
8993;SDS011;4532;50.886;4.700;2023-08-20T02:54:15;6.72;;;2.42;;
8993;SDS011;4532;50.886;4.700;2023-08-20T02:56:44;9.30;;;2.65;;
8993;SDS011;4532;50.886;4.700;2023-08-20T02:59:14;6.80;;;2.28;;
8993;SDS011;4532;50.886;4.700;2023-08-20T03:01:44;7.93;;;2.30;;
8993;SDS011;4532;50.886;4.700;2023-08-20T03:04:11;9.73;;;2.42;;
8993;SDS011;4532;50.886;4.700;2023-08-20T03:06:41;8.63;;;2.30;;
8993;SDS011;4532;50.886;4.700;2023-08-20T03:09:11;8.32;;;2.70;;
8993;SDS011;4532;50.886;4.700;2023-08-20T03:11:40;8.35;;;2.42;;
8993;SDS011;4532;50.886;4.700;2023-08-20T03:14:10;8.15;;;2.65;;
8993;SDS011;4532;50.886;4.700;2023-08-20T03:16:46;6.65;;;2.30;;
8993;SDS011;4532;50.886;4.700;2023-08-20T03:19:14;5.95;;;2.30;;
8993;SDS011;4532;50.886;4.700;2023-08-20T03:21:46;6.97;;;2.65;;
8993;SDS011;4532;50.886;4.700;2023-08-20T03:24:19;6.80;;;2.45;;
8993;SDS011;4532;50.886;4.700;2023-08-20T03:26:48;7.38;;;2.33;;
8993;SDS011;4532;50.886;4.700;2023-08-20T03:29:16;6.70;;;2.55;;
8993;SDS011;4532;50.886;4.700;2023-08-20T03:31:43;7.20;;;2.75;;
8993;SDS011;4532;50.886;4.700;2023-08-20T03:34:12;7.88;;;2.45;;
8993;SDS011;4532;50.886;4.700;2023-08-20T03:36:42;6.38;;;2.60;;
8993;SDS011;4532;50.886;4.700;2023-08-20T03:39:14;7.28;;;2.60;;
8993;SDS011;4532;50.886;4.700;2023-08-20T03:41:41;7.85;;;2.70;;
8993;SDS011;4532;50.886;4.700;2023-08-20T03:44:08;6.55;;;2.72;;
8993;SDS011;4532;50.886;4.700;2023-08-20T03:46:40;6.15;;;2.28;;
8993;SDS011;4532;50.886;4.700;2023-08-20T03:49:10;5.93;;;2.17;;
8993;SDS011;4532;50.886;4.700;2023-08-20T03:51:37;8.20;;;2.45;;
8993;SDS011;4532;50.886;4.700;2023-08-20T03:54:05;6.75;;;2.30;;
8993;SDS011;4532;50.886;4.700;2023-08-20T03:56:38;7.20;;;2.50;;
8993;SDS011;4532;50.886;4.700;2023-08-20T03:59:20;7.43;;;2.40;;
8993;SDS011;4532;50.886;4.700;2023-08-20T04:01:50;7.40;;;2.72;;
8993;SDS011;4532;50.886;4.700;2023-08-20T04:04:18;9.75;;;2.67;;
8993;SDS011;4532;50.886;4.700;2023-08-20T04:06:48;7.20;;;2.42;;
8993;SDS011;4532;50.886;4.700;2023-08-20T04:09:15;7.70;;;2.50;;
8993;SDS011;4532;50.886;4.700;2023-08-20T04:11:45;6.70;;;2.95;;
8993;SDS011;4532;50.886;4.700;2023-08-20T04:14:15;6.13;;;2.90;;
8993;SDS011;4532;50.886;4.700;2023-08-20T04:16:47;8.23;;;2.58;;
8993;SDS011;4532;50.886;4.700;2023-08-20T04:19:19;6.13;;;2.30;;
8993;SDS011;4532;50.886;4.700;2023-08-20T04:21:47;6.18;;;2.40;;
8993;SDS011;4532;50.886;4.700;2023-08-20T04:24:19;7.38;;;2.45;;
8993;SDS011;4532;50.886;4.700;2023-08-20T04:26:48;5.28;;;2.85;;
8993;SDS011;4532;50.886;4.700;2023-08-20T04:29:16;7.18;;;2.53;;
8993;SDS011;4532;50.886;4.700;2023-08-20T04:31:50;6.65;;;2.63;;
8993;SDS011;4532;50.886;4.700;2023-08-20T04:34:19;7.80;;;2.47;;
8993;SDS011;4532;50.886;4.700;2023-08-20T04:36:48;4.40;;;2.40;;
8993;SDS011;4532;50.886;4.700;2023-08-20T04:39:16;7.55;;;2.65;;
8993;SDS011;4532;50.886;4.700;2023-08-20T04:41:51;6.22;;;2.67;;
8993;SDS011;4532;50.886;4.700;2023-08-20T04:44:18;9.48;;;2.83;;
8993;SDS011;4532;50.886;4.700;2023-08-20T04:46:51;7.47;;;2.50;;
8993;SDS011;4532;50.886;4.700;2023-08-20T04:49:26;7.50;;;2.60;;
8993;SDS011;4532;50.886;4.700;2023-08-20T04:51:56;6.38;;;2.42;;
8993;SDS011;4532;50.886;4.700;2023-08-20T04:54:25;6.05;;;2.13;;
8993;SDS011;4532;50.886;4.700;2023-08-20T04:56:55;6.10;;;2.40;;
8993;SDS011;4532;50.886;4.700;2023-08-20T04:59:22;8.10;;;2.70;;
8993;SDS011;4532;50.886;4.700;2023-08-20T05:01:55;6.43;;;2.78;;
8993;SDS011;4532;50.886;4.700;2023-08-20T05:04:25;4.72;;;2.42;;
8993;SDS011;4532;50.886;4.700;2023-08-20T05:07:01;8.18;;;3.13;;
8993;SDS011;4532;50.886;4.700;2023-08-20T05:09:32;7.97;;;2.65;;
8993;SDS011;4532;50.886;4.700;2023-08-20T05:12:02;5.60;;;2.50;;
8993;SDS011;4532;50.886;4.700;2023-08-20T05:14:30;8.38;;;3.15;;
8993;SDS011;4532;50.886;4.700;2023-08-20T05:16:57;7.70;;;2.78;;
8993;SDS011;4532;50.886;4.700;2023-08-20T05:19:29;6.63;;;2.75;;
8993;SDS011;4532;50.886;4.700;2023-08-20T05:22:01;8.23;;;2.70;;
8993;SDS011;4532;50.886;4.700;2023-08-20T05:24:30;7.57;;;3.03;;
8993;SDS011;4532;50.886;4.700;2023-08-20T05:27:05;6.68;;;2.88;;
8993;SDS011;4532;50.886;4.700;2023-08-20T05:29:39;5.43;;;2.92;;
8993;SDS011;4532;50.886;4.700;2023-08-20T05:32:11;6.43;;;2.53;;
8993;SDS011;4532;50.886;4.700;2023-08-20T05:34:39;7.07;;;2.88;;
8993;SDS011;4532;50.886;4.700;2023-08-20T05:37:08;8.23;;;2.67;;
8993;SDS011;4532;50.886;4.700;2023-08-20T05:39:41;8.25;;;3.00;;
8993;SDS011;4532;50.886;4.700;2023-08-20T05:42:14;7.70;;;2.85;;
8993;SDS011;4532;50.886;4.700;2023-08-20T05:44:41;7.85;;;3.17;;
8993;SDS011;4532;50.886;4.700;2023-08-20T05:47:11;6.15;;;2.72;;
8993;SDS011;4532;50.886;4.700;2023-08-20T05:49:41;12.18;;;3.20;;
8993;SDS011;4532;50.886;4.700;2023-08-20T05:52:08;7.72;;;3.15;;
8993;SDS011;4532;50.886;4.700;2023-08-20T05:54:36;5.90;;;3.05;;
8993;SDS011;4532;50.886;4.700;2023-08-20T05:57:05;6.63;;;2.95;;
8993;SDS011;4532;50.886;4.700;2023-08-20T05:59:35;8.63;;;2.95;;
8993;SDS011;4532;50.886;4.700;2023-08-20T06:02:04;12.82;;;3.40;;
8993;SDS011;4532;50.886;4.700;2023-08-20T06:04:46;7.03;;;2.92;;
8993;SDS011;4532;50.886;4.700;2023-08-20T06:07:14;7.40;;;3.25;;
8993;SDS011;4532;50.886;4.700;2023-08-20T06:09:46;6.15;;;3.08;;
8993;SDS011;4532;50.886;4.700;2023-08-20T06:12:21;5.55;;;2.83;;
8993;SDS011;4532;50.886;4.700;2023-08-20T06:14:50;5.25;;;2.90;;
8993;SDS011;4532;50.886;4.700;2023-08-20T06:17:21;6.22;;;2.90;;
8993;SDS011;4532;50.886;4.700;2023-08-20T06:19:53;6.47;;;2.97;;
8993;SDS011;4532;50.886;4.700;2023-08-20T06:22:20;8.52;;;3.22;;
8993;SDS011;4532;50.886;4.700;2023-08-20T06:24:47;4.75;;;2.90;;
8993;SDS011;4532;50.886;4.700;2023-08-20T06:27:14;7.20;;;3.20;;
8993;SDS011;4532;50.886;4.700;2023-08-20T06:29:44;8.18;;;3.00;;
8993;SDS011;4532;50.886;4.700;2023-08-20T06:32:11;7.43;;;3.08;;
8993;SDS011;4532;50.886;4.700;2023-08-20T06:34:43;7.60;;;3.00;;
8993;SDS011;4532;50.886;4.700;2023-08-20T06:37:11;8.70;;;3.13;;
8993;SDS011;4532;50.886;4.700;2023-08-20T06:39:38;9.48;;;3.17;;
8993;SDS011;4532;50.886;4.700;2023-08-20T06:42:10;6.47;;;2.72;;
8993;SDS011;4532;50.886;4.700;2023-08-20T06:44:44;7.05;;;2.88;;
8993;SDS011;4532;50.886;4.700;2023-08-20T06:47:12;5.93;;;2.72;;
8993;SDS011;4532;50.886;4.700;2023-08-20T06:49:46;8.00;;;3.25;;
8993;SDS011;4532;50.886;4.700;2023-08-20T06:52:24;5.22;;;2.42;;
8993;SDS011;4532;50.886;4.700;2023-08-20T06:54:56;7.30;;;3.03;;
8993;SDS011;4532;50.886;4.700;2023-08-20T06:57:26;6.70;;;2.65;;
8993;SDS011;4532;50.886;4.700;2023-08-20T06:59:53;8.57;;;2.78;;
8993;SDS011;4532;50.886;4.700;2023-08-20T07:02:22;5.88;;;2.60;;
8993;SDS011;4532;50.886;4.700;2023-08-20T07:04:49;7.55;;;3.15;;
8993;SDS011;4532;50.886;4.700;2023-08-20T07:07:19;8.50;;;2.97;;
8993;SDS011;4532;50.886;4.700;2023-08-20T07:09:46;5.13;;;2.40;;
8993;SDS011;4532;50.886;4.700;2023-08-20T07:12:15;5.47;;;2.25;;
8993;SDS011;4532;50.886;4.700;2023-08-20T07:14:43;5.13;;;2.05;;
8993;SDS011;4532;50.886;4.700;2023-08-20T07:17:10;7.13;;;1.80;;
8993;SDS011;4532;50.886;4.700;2023-08-20T07:19:37;5.40;;;2.10;;
8993;SDS011;4532;50.886;4.700;2023-08-20T07:22:04;5.70;;;1.80;;
8993;SDS011;4532;50.886;4.700;2023-08-20T07:24:34;5.55;;;1.58;;
8993;SDS011;4532;50.886;4.700;2023-08-20T07:27:02;3.75;;;1.42;;
8993;SDS011;4532;50.886;4.700;2023-08-20T07:29:32;3.65;;;1.40;;
8993;SDS011;4532;50.886;4.700;2023-08-20T07:32:02;4.20;;;1.20;;
8993;SDS011;4532;50.886;4.700;2023-08-20T07:34:30;4.85;;;1.30;;
8993;SDS011;4532;50.886;4.700;2023-08-20T07:36:57;3.05;;;1.13;;
8993;SDS011;4532;50.886;4.700;2023-08-20T07:39:25;3.83;;;1.30;;
8993;SDS011;4532;50.886;4.700;2023-08-20T07:41:55;7.10;;;1.58;;
8993;SDS011;4532;50.886;4.700;2023-08-20T07:44:24;3.50;;;1.40;;
8993;SDS011;4532;50.886;4.700;2023-08-20T07:46:58;3.80;;;1.30;;
8993;SDS011;4532;50.886;4.700;2023-08-20T07:49:28;3.50;;;1.40;;
8993;SDS011;4532;50.886;4.700;2023-08-20T07:51:55;4.90;;;1.08;;
8993;SDS011;4532;50.886;4.700;2023-08-20T07:54:25;3.70;;;1.65;;
8993;SDS011;4532;50.886;4.700;2023-08-20T07:56:53;3.88;;;1.33;;
8993;SDS011;4532;50.886;4.700;2023-08-20T07:59:33;3.50;;;1.08;;
8993;SDS011;4532;50.886;4.700;2023-08-20T08:02:01;3.20;;;0.98;;
8993;SDS011;4532;50.886;4.700;2023-08-20T08:04:30;3.83;;;1.08;;
8993;SDS011;4532;50.886;4.700;2023-08-20T08:07:00;3.28;;;1.23;;
8993;SDS011;4532;50.886;4.700;2023-08-20T08:11:58;1.70;;;1.08;;
8993;SDS011;4532;50.886;4.700;2023-08-20T08:14:26;3.75;;;1.10;;
8993;SDS011;4532;50.886;4.700;2023-08-20T08:16:54;2.60;;;0.90;;
8993;SDS011;4532;50.886;4.700;2023-08-20T08:19:23;3.67;;;1.10;;
8993;SDS011;4532;50.886;4.700;2023-08-20T08:21:53;4.03;;;1.20;;
8993;SDS011;4532;50.886;4.700;2023-08-20T08:24:26;2.88;;;1.00;;
8993;SDS011;4532;50.886;4.700;2023-08-20T08:26:55;4.72;;;1.58;;
8993;SDS011;4532;50.886;4.700;2023-08-20T08:29:25;2.60;;;1.08;;
8993;SDS011;4532;50.886;4.700;2023-08-20T08:31:52;2.63;;;1.15;;
8993;SDS011;4532;50.886;4.700;2023-08-20T08:34:22;2.17;;;1.17;;
8993;SDS011;4532;50.886;4.700;2023-08-20T08:36:49;4.00;;;1.65;;
8993;SDS011;4532;50.886;4.700;2023-08-20T08:39:19;5.32;;;1.58;;
8993;SDS011;4532;50.886;4.700;2023-08-20T08:41:47;3.28;;;1.40;;
8993;SDS011;4532;50.886;4.700;2023-08-20T08:44:17;3.28;;;1.50;;
8993;SDS011;4532;50.886;4.700;2023-08-20T08:46:49;3.33;;;1.50;;
8993;SDS011;4532;50.886;4.700;2023-08-20T08:49:22;2.45;;;1.30;;
8993;SDS011;4532;50.886;4.700;2023-08-20T08:51:50;2.95;;;1.30;;
8993;SDS011;4532;50.886;4.700;2023-08-20T08:54:18;2.30;;;1.35;;
8993;SDS011;4532;50.886;4.700;2023-08-20T08:56:49;5.20;;;1.58;;
8993;SDS011;4532;50.886;4.700;2023-08-20T08:59:17;3.55;;;1.50;;
8993;SDS011;4532;50.886;4.700;2023-08-20T09:01:46;3.45;;;1.42;;
8993;SDS011;4532;50.886;4.700;2023-08-20T09:04:16;3.97;;;1.63;;
8993;SDS011;4532;50.886;4.700;2023-08-20T09:06:52;4.25;;;1.52;;
8993;SDS011;4532;50.886;4.700;2023-08-20T09:09:28;4.30;;;1.60;;
8993;SDS011;4532;50.886;4.700;2023-08-20T09:11:59;3.45;;;1.33;;
8993;SDS011;4532;50.886;4.700;2023-08-20T09:14:31;3.13;;;1.15;;
8993;SDS011;4532;50.886;4.700;2023-08-20T09:16:59;3.30;;;1.50;;
8993;SDS011;4532;50.886;4.700;2023-08-20T09:19:29;4.72;;;1.92;;
8993;SDS011;4532;50.886;4.700;2023-08-20T09:21:59;3.33;;;1.45;;
8993;SDS011;4532;50.886;4.700;2023-08-20T09:24:46;3.92;;;1.67;;
8993;SDS011;4532;50.886;4.700;2023-08-20T09:27:22;3.70;;;1.58;;
8993;SDS011;4532;50.886;4.700;2023-08-20T09:29:56;3.50;;;1.65;;
8993;SDS011;4532;50.886;4.700;2023-08-20T09:32:28;4.82;;;2.10;;
8993;SDS011;4532;50.886;4.700;2023-08-20T09:34:55;3.38;;;1.65;;
8993;SDS011;4532;50.886;4.700;2023-08-20T09:37:23;6.30;;;2.53;;
8993;SDS011;4532;50.886;4.700;2023-08-20T09:39:51;3.50;;;1.65;;
8993;SDS011;4532;50.886;4.700;2023-08-20T09:42:18;3.63;;;1.73;;
8993;SDS011;4532;50.886;4.700;2023-08-20T09:44:46;4.40;;;1.67;;
8993;SDS011;4532;50.886;4.700;2023-08-20T09:47:22;5.70;;;2.10;;
8993;SDS011;4532;50.886;4.700;2023-08-20T09:49:54;4.72;;;1.63;;
8993;SDS011;4532;50.886;4.700;2023-08-20T09:57:35;2.78;;;1.27;;
8993;SDS011;4532;50.886;4.700;2023-08-20T10:00:12;3.50;;;1.50;;
8993;SDS011;4532;50.886;4.700;2023-08-20T10:02:42;3.42;;;1.50;;
8993;SDS011;4532;50.886;4.700;2023-08-20T10:05:17;5.53;;;1.50;;
8993;SDS011;4532;50.886;4.700;2023-08-20T10:07:46;4.15;;;1.50;;
8993;SDS011;4532;50.886;4.700;2023-08-20T10:10:17;3.70;;;1.40;;
8993;SDS011;4532;50.886;4.700;2023-08-20T10:12:49;5.47;;;1.55;;
8993;SDS011;4532;50.886;4.700;2023-08-20T10:15:25;1.95;;;1.27;;
8993;SDS011;4532;50.886;4.700;2023-08-20T10:17:55;4.22;;;1.50;;
8993;SDS011;4532;50.886;4.700;2023-08-20T10:20:26;3.95;;;1.40;;
8993;SDS011;4532;50.886;4.700;2023-08-20T10:22:59;3.40;;;1.65;;
8993;SDS011;4532;50.886;4.700;2023-08-20T10:25:39;3.40;;;1.40;;
8993;SDS011;4532;50.886;4.700;2023-08-20T10:28:19;5.35;;;1.50;;
8993;SDS011;4532;50.886;4.700;2023-08-20T10:33:50;5.22;;;1.30;;
8993;SDS011;4532;50.886;4.700;2023-08-20T10:36:22;4.22;;;1.25;;
8993;SDS011;4532;50.886;4.700;2023-08-20T10:38:56;2.97;;;1.35;;
8993;SDS011;4532;50.886;4.700;2023-08-20T10:41:30;3.13;;;1.35;;
8993;SDS011;4532;50.886;4.700;2023-08-20T10:43:57;3.05;;;1.30;;
8993;SDS011;4532;50.886;4.700;2023-08-20T10:46:29;3.15;;;1.50;;
8993;SDS011;4532;50.886;4.700;2023-08-20T10:49:07;3.97;;;1.60;;
8993;SDS011;4532;50.886;4.700;2023-08-20T10:51:36;4.00;;;1.30;;
8993;SDS011;4532;50.886;4.700;2023-08-20T10:54:08;3.17;;;1.35;;
8993;SDS011;4532;50.886;4.700;2023-08-20T10:56:37;3.72;;;1.13;;
8993;SDS011;4532;50.886;4.700;2023-08-20T10:59:29;6.00;;;1.50;;
8993;SDS011;4532;50.886;4.700;2023-08-20T11:01:59;4.82;;;1.40;;
8993;SDS011;4532;50.886;4.700;2023-08-20T11:04:32;3.90;;;1.58;;
8993;SDS011;4532;50.886;4.700;2023-08-20T11:07:04;2.17;;;1.30;;
8993;SDS011;4532;50.886;4.700;2023-08-20T11:09:32;3.70;;;1.35;;
8993;SDS011;4532;50.886;4.700;2023-08-20T11:12:04;2.38;;;1.40;;
8993;SDS011;4532;50.886;4.700;2023-08-20T11:14:37;2.40;;;1.23;;
8993;SDS011;4532;50.886;4.700;2023-08-20T11:17:04;4.85;;;1.70;;
8993;SDS011;4532;50.886;4.700;2023-08-20T11:19:31;2.45;;;1.20;;
8993;SDS011;4532;50.886;4.700;2023-08-20T11:22:04;4.20;;;1.40;;
8993;SDS011;4532;50.886;4.700;2023-08-20T11:24:31;3.13;;;1.45;;
8993;SDS011;4532;50.886;4.700;2023-08-20T11:27:02;3.05;;;1.40;;
8993;SDS011;4532;50.886;4.700;2023-08-20T11:29:32;5.15;;;1.42;;
8993;SDS011;4532;50.886;4.700;2023-08-20T11:31:59;1.88;;;1.17;;
8993;SDS011;4532;50.886;4.700;2023-08-20T11:34:32;4.40;;;1.40;;
8993;SDS011;4532;50.886;4.700;2023-08-20T11:37:02;2.90;;;1.20;;
8993;SDS011;4532;50.886;4.700;2023-08-20T11:39:36;3.20;;;1.40;;
8993;SDS011;4532;50.886;4.700;2023-08-20T11:42:03;3.92;;;1.58;;
8993;SDS011;4532;50.886;4.700;2023-08-20T11:44:41;5.22;;;1.60;;
8993;SDS011;4532;50.886;4.700;2023-08-20T11:47:16;4.47;;;1.10;;
8993;SDS011;4532;50.886;4.700;2023-08-20T11:49:44;5.05;;;1.40;;
8993;SDS011;4532;50.886;4.700;2023-08-20T11:52:18;3.22;;;1.23;;
8993;SDS011;4532;50.886;4.700;2023-08-20T11:54:48;3.08;;;1.42;;
8993;SDS011;4532;50.886;4.700;2023-08-20T11:57:15;3.45;;;1.17;;
8993;SDS011;4532;50.886;4.700;2023-08-20T11:59:49;4.90;;;1.63;;
8993;SDS011;4532;50.886;4.700;2023-08-20T12:02:24;3.88;;;1.80;;
8993;SDS011;4532;50.886;4.700;2023-08-20T12:05:05;2.65;;;1.40;;
8993;SDS011;4532;50.886;4.700;2023-08-20T12:07:33;3.83;;;1.30;;
8993;SDS011;4532;50.886;4.700;2023-08-20T12:10:23;3.60;;;1.30;;
8993;SDS011;4532;50.886;4.700;2023-08-20T12:12:54;3.97;;;1.67;;
8993;SDS011;4532;50.886;4.700;2023-08-20T12:15:23;2.35;;;1.40;;
8993;SDS011;4532;50.886;4.700;2023-08-20T12:17:58;2.50;;;1.20;;
8993;SDS011;4532;50.886;4.700;2023-08-20T12:20:29;4.22;;;1.42;;
8993;SDS011;4532;50.886;4.700;2023-08-20T12:22:58;5.03;;;1.52;;
8993;SDS011;4532;50.886;4.700;2023-08-20T12:25:30;6.97;;;1.55;;
8993;SDS011;4532;50.886;4.700;2023-08-20T12:28:02;5.82;;;1.52;;
8993;SDS011;4532;50.886;4.700;2023-08-20T12:30:32;2.63;;;1.30;;
8993;SDS011;4532;50.886;4.700;2023-08-20T12:33:05;2.15;;;1.40;;
8993;SDS011;4532;50.886;4.700;2023-08-20T12:35:33;5.93;;;2.20;;
8993;SDS011;4532;50.886;4.700;2023-08-20T12:38:04;3.08;;;1.25;;
8993;SDS011;4532;50.886;4.700;2023-08-20T12:40:39;3.65;;;1.50;;
8993;SDS011;4532;50.886;4.700;2023-08-20T12:43:07;5.18;;;1.75;;
8993;SDS011;4532;50.886;4.700;2023-08-20T12:45:39;3.90;;;1.58;;
8993;SDS011;4532;50.886;4.700;2023-08-20T12:48:08;3.53;;;1.65;;
8993;SDS011;4532;50.886;4.700;2023-08-20T12:50:38;2.38;;;1.23;;
8993;SDS011;4532;50.886;4.700;2023-08-20T12:53:07;5.35;;;1.55;;
8993;SDS011;4532;50.886;4.700;2023-08-20T12:55:39;3.92;;;1.60;;
8993;SDS011;4532;50.886;4.700;2023-08-20T12:58:09;3.58;;;1.77;;
8993;SDS011;4532;50.886;4.700;2023-08-20T13:00:43;2.55;;;1.10;;
8993;SDS011;4532;50.886;4.700;2023-08-20T13:03:11;3.38;;;1.20;;
8993;SDS011;4532;50.886;4.700;2023-08-20T13:05:46;4.22;;;1.10;;
8993;SDS011;4532;50.886;4.700;2023-08-20T13:08:13;2.78;;;1.23;;
8993;SDS011;4532;50.886;4.700;2023-08-20T13:10:41;2.75;;;1.30;;
8993;SDS011;4532;50.886;4.700;2023-08-20T13:13:15;4.47;;;1.50;;
8993;SDS011;4532;50.886;4.700;2023-08-20T13:15:50;3.30;;;1.40;;
8993;SDS011;4532;50.886;4.700;2023-08-20T13:18:26;3.70;;;1.35;;
8993;SDS011;4532;50.886;4.700;2023-08-20T13:20:54;2.47;;;1.20;;
8993;SDS011;4532;50.886;4.700;2023-08-20T13:23:23;2.80;;;1.25;;
8993;SDS011;4532;50.886;4.700;2023-08-20T13:25:51;2.92;;;1.30;;
8993;SDS011;4532;50.886;4.700;2023-08-20T13:28:25;2.30;;;1.10;;
8993;SDS011;4532;50.886;4.700;2023-08-20T13:30:55;2.88;;;1.20;;
8993;SDS011;4532;50.886;4.700;2023-08-20T13:33:24;2.70;;;1.10;;
8993;SDS011;4532;50.886;4.700;2023-08-20T13:35:52;3.00;;;1.30;;
8993;SDS011;4532;50.886;4.700;2023-08-20T13:38:27;3.42;;;1.25;;
8993;SDS011;4532;50.886;4.700;2023-08-20T13:40:59;3.28;;;1.25;;
8993;SDS011;4532;50.886;4.700;2023-08-20T13:43:28;2.75;;;1.40;;
8993;SDS011;4532;50.886;4.700;2023-08-20T13:45:58;4.13;;;1.42;;
8993;SDS011;4532;50.886;4.700;2023-08-20T13:48:25;2.38;;;1.05;;
8993;SDS011;4532;50.886;4.700;2023-08-20T13:50:55;4.07;;;1.20;;
8993;SDS011;4532;50.886;4.700;2023-08-20T13:53:24;2.72;;;1.27;;
8993;SDS011;4532;50.886;4.700;2023-08-20T13:55:52;3.28;;;1.42;;
8993;SDS011;4532;50.886;4.700;2023-08-20T13:58:20;3.30;;;1.40;;
8993;SDS011;4532;50.886;4.700;2023-08-20T14:00:47;2.47;;;1.23;;
8993;SDS011;4532;50.886;4.700;2023-08-20T14:03:17;3.72;;;1.15;;
8993;SDS011;4532;50.886;4.700;2023-08-20T14:05:44;1.75;;;1.00;;
8993;SDS011;4532;50.886;4.700;2023-08-20T14:08:14;4.72;;;1.38;;
8993;SDS011;4532;50.886;4.700;2023-08-20T14:10:44;3.60;;;1.17;;
8993;SDS011;4532;50.886;4.700;2023-08-20T14:13:11;3.30;;;1.25;;
8993;SDS011;4532;50.886;4.700;2023-08-20T14:15:40;3.63;;;1.23;;
8993;SDS011;4532;50.886;4.700;2023-08-20T14:18:08;2.63;;;1.35;;
8993;SDS011;4532;50.886;4.700;2023-08-20T14:20:41;3.15;;;1.70;;
8993;SDS011;4532;50.886;4.700;2023-08-20T14:23:10;2.55;;;1.17;;
8993;SDS011;4532;50.886;4.700;2023-08-20T14:25:39;3.25;;;1.40;;
8993;SDS011;4532;50.886;4.700;2023-08-20T14:28:07;2.85;;;1.20;;
8993;SDS011;4532;50.886;4.700;2023-08-20T14:30:38;3.30;;;1.40;;
8993;SDS011;4532;50.886;4.700;2023-08-20T14:33:09;3.50;;;1.30;;
8993;SDS011;4532;50.886;4.700;2023-08-20T14:35:39;3.22;;;1.38;;
8993;SDS011;4532;50.886;4.700;2023-08-20T14:38:08;1.55;;;0.85;;
8993;SDS011;4532;50.886;4.700;2023-08-20T14:40:41;3.35;;;1.35;;
8993;SDS011;4532;50.886;4.700;2023-08-20T14:43:08;4.65;;;1.30;;
8993;SDS011;4532;50.886;4.700;2023-08-20T14:45:40;4.70;;;1.40;;
8993;SDS011;4532;50.886;4.700;2023-08-20T14:48:08;2.45;;;1.23;;
8993;SDS011;4532;50.886;4.700;2023-08-20T14:50:37;3.42;;;1.35;;
8993;SDS011;4532;50.886;4.700;2023-08-20T14:53:04;3.55;;;1.40;;
8993;SDS011;4532;50.886;4.700;2023-08-20T14:55:31;2.00;;;1.17;;
8993;SDS011;4532;50.886;4.700;2023-08-20T14:58:01;4.53;;;1.10;;
8993;SDS011;4532;50.886;4.700;2023-08-20T15:00:28;3.10;;;1.40;;
8993;SDS011;4532;50.886;4.700;2023-08-20T15:02:58;3.80;;;1.35;;
8993;SDS011;4532;50.886;4.700;2023-08-20T15:05:26;2.30;;;1.40;;
8993;SDS011;4532;50.886;4.700;2023-08-20T15:07:53;4.53;;;1.30;;
8993;SDS011;4532;50.886;4.700;2023-08-20T15:10:25;3.92;;;1.38;;
8993;SDS011;4532;50.886;4.700;2023-08-20T15:12:55;3.67;;;1.20;;
8993;SDS011;4532;50.886;4.700;2023-08-20T15:15:22;3.08;;;1.40;;
8993;SDS011;4532;50.886;4.700;2023-08-20T15:17:49;3.90;;;1.40;;
8993;SDS011;4532;50.886;4.700;2023-08-20T15:20:21;3.33;;;1.70;;
8993;SDS011;4532;50.886;4.700;2023-08-20T15:22:51;3.92;;;1.55;;
8993;SDS011;4532;50.886;4.700;2023-08-20T15:25:20;4.53;;;1.70;;
8993;SDS011;4532;50.886;4.700;2023-08-20T15:27:49;3.97;;;1.67;;
8993;SDS011;4532;50.886;4.700;2023-08-20T15:30:17;4.45;;;1.80;;
8993;SDS011;4532;50.886;4.700;2023-08-20T15:32:51;3.70;;;1.50;;
8993;SDS011;4532;50.886;4.700;2023-08-20T15:35:22;4.75;;;1.48;;
8993;SDS011;4532;50.886;4.700;2023-08-20T15:37:51;3.42;;;1.50;;
8993;SDS011;4532;50.886;4.700;2023-08-20T15:40:20;3.50;;;1.67;;
8993;SDS011;4532;50.886;4.700;2023-08-20T15:42:47;3.97;;;1.52;;
8993;SDS011;4532;50.886;4.700;2023-08-20T15:45:17;3.50;;;1.15;;
8993;SDS011;4532;50.886;4.700;2023-08-20T15:47:47;3.58;;;1.30;;
8993;SDS011;4532;50.886;4.700;2023-08-20T15:50:16;2.92;;;1.45;;
8993;SDS011;4532;50.886;4.700;2023-08-20T15:52:46;3.15;;;1.38;;
8993;SDS011;4532;50.886;4.700;2023-08-20T15:55:15;4.35;;;1.52;;